sensor_id;sensor_type;location;lat;lon;timestamp;pressure;altitude;pressure_sealevel;temperature
10598;BMP180;5346;48.766;8.674;2022-12-24T00:00:47;93452.00;;;8.70
10598;BMP180;5346;48.766;8.674;2022-12-24T00:03:14;93446.00;;;8.80
10598;BMP180;5346;48.766;8.674;2022-12-24T00:05:42;93459.00;;;8.80
10598;BMP180;5346;48.766;8.674;2022-12-24T00:08:16;93457.00;;;8.50
10598;BMP180;5346;48.766;8.674;2022-12-24T00:10:44;93463.00;;;8.60
10598;BMP180;5346;48.766;8.674;2022-12-24T00:13:14;93466.00;;;8.60
10598;BMP180;5346;48.766;8.674;2022-12-24T00:15:48;93476.00;;;8.60
10598;BMP180;5346;48.766;8.674;2022-12-24T00:18:17;93467.00;;;8.10
10598;BMP180;5346;48.766;8.674;2022-12-24T00:20:47;93458.00;;;8.70
10598;BMP180;5346;48.766;8.674;2022-12-24T00:23:21;93458.00;;;8.70
10598;BMP180;5346;48.766;8.674;2022-12-24T00:25:48;93467.00;;;8.60
10598;BMP180;5346;48.766;8.674;2022-12-24T00:28:17;93453.00;;;8.70
10598;BMP180;5346;48.766;8.674;2022-12-24T00:30:52;93458.00;;;8.60
10598;BMP180;5346;48.766;8.674;2022-12-24T00:33:19;93463.00;;;8.50
10598;BMP180;5346;48.766;8.674;2022-12-24T00:36:09;93452.00;;;8.30
10598;BMP180;5346;48.766;8.674;2022-12-24T00:38:40;93445.00;;;8.20
10598;BMP180;5346;48.766;8.674;2022-12-24T00:41:16;93447.00;;;8.30
10598;BMP180;5346;48.766;8.674;2022-12-24T00:44:04;93454.00;;;8.40
10598;BMP180;5346;48.766;8.674;2022-12-24T00:46:45;93457.00;;;8.40
10598;BMP180;5346;48.766;8.674;2022-12-24T00:49:14;93455.00;;;8.50
10598;BMP180;5346;48.766;8.674;2022-12-24T00:51:43;93464.00;;;8.50
10598;BMP180;5346;48.766;8.674;2022-12-24T00:54:17;93467.00;;;8.40
10598;BMP180;5346;48.766;8.674;2022-12-24T00:56:44;93478.00;;;8.40
10598;BMP180;5346;48.766;8.674;2022-12-24T00:59:12;93476.00;;;8.40
10598;BMP180;5346;48.766;8.674;2022-12-24T01:01:46;93489.00;;;8.50
10598;BMP180;5346;48.766;8.674;2022-12-24T01:04:13;93485.00;;;8.60
10598;BMP180;5346;48.766;8.674;2022-12-24T01:07:06;93483.00;;;8.60
10598;BMP180;5346;48.766;8.674;2022-12-24T01:09:35;93501.00;;;8.60
10598;BMP180;5346;48.766;8.674;2022-12-24T01:12:02;93501.00;;;8.60
10598;BMP180;5346;48.766;8.674;2022-12-24T01:14:36;93511.00;;;8.70
10598;BMP180;5346;48.766;8.674;2022-12-24T01:17:04;93518.00;;;8.70
10598;BMP180;5346;48.766;8.674;2022-12-24T01:19:32;93511.00;;;8.50
10598;BMP180;5346;48.766;8.674;2022-12-24T01:22:06;93531.00;;;8.50
10598;BMP180;5346;48.766;8.674;2022-12-24T01:24:33;93553.00;;;8.50
10598;BMP180;5346;48.766;8.674;2022-12-24T01:27:01;93549.00;;;8.50
10598;BMP180;5346;48.766;8.674;2022-12-24T01:29:35;93542.00;;;8.20
10598;BMP180;5346;48.766;8.674;2022-12-24T01:32:03;93551.00;;;8.20
10598;BMP180;5346;48.766;8.674;2022-12-24T01:34:51;93556.00;;;8.20
10598;BMP180;5346;48.766;8.674;2022-12-24T01:37:18;93576.00;;;8.20
10598;BMP180;5346;48.766;8.674;2022-12-24T01:39:52;93582.00;;;8.40
10598;BMP180;5346;48.766;8.674;2022-12-24T01:42:43;93596.00;;;8.20
10598;BMP180;5346;48.766;8.674;2022-12-24T01:45:44;93600.00;;;8.10
10598;BMP180;5346;48.766;8.674;2022-12-24T01:48:16;93592.00;;;8.10
10598;BMP180;5346;48.766;8.674;2022-12-24T01:50:57;93594.00;;;8.10
10598;BMP180;5346;48.766;8.674;2022-12-24T01:53:25;93583.00;;;8.20
10598;BMP180;5346;48.766;8.674;2022-12-24T01:56:00;93595.00;;;8.10
10598;BMP180;5346;48.766;8.674;2022-12-24T01:58:28;93599.00;;;8.10
10598;BMP180;5346;48.766;8.674;2022-12-24T02:00:56;93607.00;;;8.10
10598;BMP180;5346;48.766;8.674;2022-12-24T02:03:31;93600.00;;;8.20
10598;BMP180;5346;48.766;8.674;2022-12-24T02:05:59;93599.00;;;8.10
10598;BMP180;5346;48.766;8.674;2022-12-24T02:08:27;93609.00;;;7.90
10598;BMP180;5346;48.766;8.674;2022-12-24T02:11:14;93617.00;;;7.80
10598;BMP180;5346;48.766;8.674;2022-12-24T02:13:47;93604.00;;;7.80
10598;BMP180;5346;48.766;8.674;2022-12-24T02:19:37;93595.00;;;7.60
10598;BMP180;5346;48.766;8.674;2022-12-24T02:31:00;93620.00;;;7.50
10598;BMP180;5346;48.766;8.674;2022-12-24T02:33:41;93604.00;;;7.50
10598;BMP180;5346;48.766;8.674;2022-12-24T02:36:35;93628.00;;;7.50
10598;BMP180;5346;48.766;8.674;2022-12-24T02:39:15;93642.00;;;7.50
10598;BMP180;5346;48.766;8.674;2022-12-24T02:41:49;93659.00;;;7.50
10598;BMP180;5346;48.766;8.674;2022-12-24T02:47:13;93642.00;;;7.50
10598;BMP180;5346;48.766;8.674;2022-12-24T02:49:43;93644.00;;;7.50
10598;BMP180;5346;48.766;8.674;2022-12-24T02:52:33;93635.00;;;7.50
10598;BMP180;5346;48.766;8.674;2022-12-24T02:55:05;93642.00;;;7.50
10598;BMP180;5346;48.766;8.674;2022-12-24T03:01:06;93646.00;;;7.50
10598;BMP180;5346;48.766;8.674;2022-12-24T03:04:10;93649.00;;;7.40
10598;BMP180;5346;48.766;8.674;2022-12-24T03:09:37;93654.00;;;7.40
10598;BMP180;5346;48.766;8.674;2022-12-24T03:12:14;93653.00;;;7.50
10598;BMP180;5346;48.766;8.674;2022-12-24T03:14:50;93656.00;;;7.60
10598;BMP180;5346;48.766;8.674;2022-12-24T03:17:19;93678.00;;;7.60
10598;BMP180;5346;48.766;8.674;2022-12-24T03:19:47;93682.00;;;7.60
10598;BMP180;5346;48.766;8.674;2022-12-24T03:22:22;93690.00;;;7.70
10598;BMP180;5346;48.766;8.674;2022-12-24T03:24:51;93676.00;;;7.60
10598;BMP180;5346;48.766;8.674;2022-12-24T03:27:21;93677.00;;;7.70
10598;BMP180;5346;48.766;8.674;2022-12-24T03:29:55;93672.00;;;7.80
10598;BMP180;5346;48.766;8.674;2022-12-24T03:32:37;93675.00;;;7.70
10598;BMP180;5346;48.766;8.674;2022-12-24T03:35:17;93693.00;;;7.90
10598;BMP180;5346;48.766;8.674;2022-12-24T03:37:45;93691.00;;;7.90
10598;BMP180;5346;48.766;8.674;2022-12-24T03:40:13;93700.00;;;7.80
10598;BMP180;5346;48.766;8.674;2022-12-24T03:42:51;93696.00;;;7.70
10598;BMP180;5346;48.766;8.674;2022-12-24T03:45:19;93710.00;;;7.70
10598;BMP180;5346;48.766;8.674;2022-12-24T03:47:46;93708.00;;;7.80
10598;BMP180;5346;48.766;8.674;2022-12-24T03:50:20;93692.00;;;7.80
10598;BMP180;5346;48.766;8.674;2022-12-24T03:52:47;93687.00;;;7.70
10598;BMP180;5346;48.766;8.674;2022-12-24T03:55:15;93698.00;;;7.40
10598;BMP180;5346;48.766;8.674;2022-12-24T03:57:49;93700.00;;;7.30
10598;BMP180;5346;48.766;8.674;2022-12-24T04:00:17;93698.00;;;7.40
10598;BMP180;5346;48.766;8.674;2022-12-24T04:02:46;93694.00;;;7.40
10598;BMP180;5346;48.766;8.674;2022-12-24T04:05:21;93710.00;;;7.50
10598;BMP180;5346;48.766;8.674;2022-12-24T04:07:50;93713.00;;;7.30
10598;BMP180;5346;48.766;8.674;2022-12-24T04:10:18;93719.00;;;7.30
10598;BMP180;5346;48.766;8.674;2022-12-24T04:12:52;93722.00;;;7.30
10598;BMP180;5346;48.766;8.674;2022-12-24T04:15:26;93731.00;;;7.40
10598;BMP180;5346;48.766;8.674;2022-12-24T04:18:00;93738.00;;;7.50
10598;BMP180;5346;48.766;8.674;2022-12-24T04:20:27;93733.00;;;7.60
10598;BMP180;5346;48.766;8.674;2022-12-24T04:22:55;93722.00;;;7.70
10598;BMP180;5346;48.766;8.674;2022-12-24T04:25:29;93718.00;;;7.70
10598;BMP180;5346;48.766;8.674;2022-12-24T04:27:56;93728.00;;;7.70
10598;BMP180;5346;48.766;8.674;2022-12-24T04:30:25;93722.00;;;7.60
10598;BMP180;5346;48.766;8.674;2022-12-24T04:33:06;93713.00;;;7.40
10598;BMP180;5346;48.766;8.674;2022-12-24T04:35:37;93731.00;;;7.30
10598;BMP180;5346;48.766;8.674;2022-12-24T04:38:11;93733.00;;;7.40
10598;BMP180;5346;48.766;8.674;2022-12-24T04:40:38;93743.00;;;7.50
10598;BMP180;5346;48.766;8.674;2022-12-24T04:43:08;93734.00;;;7.40
10598;BMP180;5346;48.766;8.674;2022-12-24T04:45:41;93735.00;;;7.50
10598;BMP180;5346;48.766;8.674;2022-12-24T04:48:08;93735.00;;;7.60
10598;BMP180;5346;48.766;8.674;2022-12-24T04:50:36;93743.00;;;7.50
10598;BMP180;5346;48.766;8.674;2022-12-24T04:53:10;93755.00;;;7.70
10598;BMP180;5346;48.766;8.674;2022-12-24T04:55:48;93750.00;;;7.60
10598;BMP180;5346;48.766;8.674;2022-12-24T04:58:22;93761.00;;;7.70
10598;BMP180;5346;48.766;8.674;2022-12-24T05:00:50;93769.00;;;7.60
10598;BMP180;5346;48.766;8.674;2022-12-24T05:03:17;93764.00;;;7.70
10598;BMP180;5346;48.766;8.674;2022-12-24T05:05:51;93767.00;;;7.60
10598;BMP180;5346;48.766;8.674;2022-12-24T05:08:27;93749.00;;;7.70
10598;BMP180;5346;48.766;8.674;2022-12-24T05:11:02;93758.00;;;7.70
10598;BMP180;5346;48.766;8.674;2022-12-24T05:13:30;93755.00;;;7.70
10598;BMP180;5346;48.766;8.674;2022-12-24T05:16:11;93762.00;;;7.50
10598;BMP180;5346;48.766;8.674;2022-12-24T05:18:45;93757.00;;;7.60
10598;BMP180;5346;48.766;8.674;2022-12-24T05:21:15;93745.00;;;7.70
10598;BMP180;5346;48.766;8.674;2022-12-24T05:23:43;93749.00;;;7.70
10598;BMP180;5346;48.766;8.674;2022-12-24T05:26:39;93755.00;;;7.70
10598;BMP180;5346;48.766;8.674;2022-12-24T05:29:08;93750.00;;;7.90
10598;BMP180;5346;48.766;8.674;2022-12-24T05:31:45;93747.00;;;7.70
10598;BMP180;5346;48.766;8.674;2022-12-24T05:34:26;93742.00;;;7.80
10598;BMP180;5346;48.766;8.674;2022-12-24T05:37:00;93755.00;;;7.70
10598;BMP180;5346;48.766;8.674;2022-12-24T05:39:27;93743.00;;;7.60
10598;BMP180;5346;48.766;8.674;2022-12-24T05:41:55;93750.00;;;7.70
10598;BMP180;5346;48.766;8.674;2022-12-24T05:44:29;93754.00;;;7.60
10598;BMP180;5346;48.766;8.674;2022-12-24T05:46:57;93757.00;;;7.40
10598;BMP180;5346;48.766;8.674;2022-12-24T05:49:24;93766.00;;;7.40
10598;BMP180;5346;48.766;8.674;2022-12-24T05:51:58;93768.00;;;7.40
10598;BMP180;5346;48.766;8.674;2022-12-24T05:54:26;93765.00;;;7.50
10598;BMP180;5346;48.766;8.674;2022-12-24T05:56:53;93764.00;;;7.30
10598;BMP180;5346;48.766;8.674;2022-12-24T05:59:28;93750.00;;;7.30
10598;BMP180;5346;48.766;8.674;2022-12-24T06:01:58;93749.00;;;7.00
10598;BMP180;5346;48.766;8.674;2022-12-24T06:04:25;93769.00;;;7.10
10598;BMP180;5346;48.766;8.674;2022-12-24T06:06:59;93763.00;;;7.20
10598;BMP180;5346;48.766;8.674;2022-12-24T06:09:26;93757.00;;;7.30
10598;BMP180;5346;48.766;8.674;2022-12-24T06:11:54;93755.00;;;7.20
10598;BMP180;5346;48.766;8.674;2022-12-24T06:14:35;93750.00;;;7.20
10598;BMP180;5346;48.766;8.674;2022-12-24T06:17:02;93764.00;;;7.40
10598;BMP180;5346;48.766;8.674;2022-12-24T06:19:36;93762.00;;;7.40
10598;BMP180;5346;48.766;8.674;2022-12-24T06:22:04;93777.00;;;7.50
10598;BMP180;5346;48.766;8.674;2022-12-24T06:24:31;93768.00;;;7.50
10598;BMP180;5346;48.766;8.674;2022-12-24T06:27:05;93783.00;;;7.50
10598;BMP180;5346;48.766;8.674;2022-12-24T06:29:33;93774.00;;;7.60
10598;BMP180;5346;48.766;8.674;2022-12-24T06:32:01;93780.00;;;7.40
10598;BMP180;5346;48.766;8.674;2022-12-24T06:34:35;93790.00;;;7.50
10598;BMP180;5346;48.766;8.674;2022-12-24T06:37:09;93792.00;;;7.40
10598;BMP180;5346;48.766;8.674;2022-12-24T06:39:50;93792.00;;;7.50
10598;BMP180;5346;48.766;8.674;2022-12-24T06:42:18;93790.00;;;7.30
10598;BMP180;5346;48.766;8.674;2022-12-24T06:44:45;93790.00;;;7.40
10598;BMP180;5346;48.766;8.674;2022-12-24T06:47:20;93802.00;;;7.10
10598;BMP180;5346;48.766;8.674;2022-12-24T06:49:49;93802.00;;;7.10
10598;BMP180;5346;48.766;8.674;2022-12-24T06:52:16;93798.00;;;7.10
10598;BMP180;5346;48.766;8.674;2022-12-24T06:54:51;93797.00;;;7.10
10598;BMP180;5346;48.766;8.674;2022-12-24T06:57:18;93812.00;;;6.90
10598;BMP180;5346;48.766;8.674;2022-12-24T06:59:46;93807.00;;;7.10
10598;BMP180;5346;48.766;8.674;2022-12-24T07:02:20;93805.00;;;7.00
10598;BMP180;5346;48.766;8.674;2022-12-24T07:04:47;93815.00;;;7.10
10598;BMP180;5346;48.766;8.674;2022-12-24T07:07:16;93811.00;;;7.10
10598;BMP180;5346;48.766;8.674;2022-12-24T07:09:51;93813.00;;;7.10
10598;BMP180;5346;48.766;8.674;2022-12-24T07:12:18;93829.00;;;7.20
10598;BMP180;5346;48.766;8.674;2022-12-24T07:14:46;93829.00;;;7.20
10598;BMP180;5346;48.766;8.674;2022-12-24T07:17:22;93846.00;;;7.30
10598;BMP180;5346;48.766;8.674;2022-12-24T07:19:50;93846.00;;;7.20
10598;BMP180;5346;48.766;8.674;2022-12-24T07:22:18;93842.00;;;7.30
10598;BMP180;5346;48.766;8.674;2022-12-24T07:24:52;93847.00;;;7.30
10598;BMP180;5346;48.766;8.674;2022-12-24T07:27:20;93847.00;;;7.50
10598;BMP180;5346;48.766;8.674;2022-12-24T07:29:47;93856.00;;;7.40
10598;BMP180;5346;48.766;8.674;2022-12-24T07:32:29;93858.00;;;7.40
10598;BMP180;5346;48.766;8.674;2022-12-24T07:35:10;93869.00;;;7.40
10598;BMP180;5346;48.766;8.674;2022-12-24T07:37:44;93856.00;;;7.40
10598;BMP180;5346;48.766;8.674;2022-12-24T07:40:12;93859.00;;;7.40
10598;BMP180;5346;48.766;8.674;2022-12-24T07:42:39;93867.00;;;7.50
10598;BMP180;5346;48.766;8.674;2022-12-24T07:45:14;93866.00;;;7.50
10598;BMP180;5346;48.766;8.674;2022-12-24T07:47:42;93862.00;;;7.50
10598;BMP180;5346;48.766;8.674;2022-12-24T07:50:10;93867.00;;;7.40
10598;BMP180;5346;48.766;8.674;2022-12-24T07:52:44;93873.00;;;7.40
10598;BMP180;5346;48.766;8.674;2022-12-24T07:55:12;93865.00;;;7.50
10598;BMP180;5346;48.766;8.674;2022-12-24T07:57:40;93855.00;;;7.60
10598;BMP180;5346;48.766;8.674;2022-12-24T08:00:14;93864.00;;;7.60
10598;BMP180;5346;48.766;8.674;2022-12-24T08:02:42;93857.00;;;7.50
10598;BMP180;5346;48.766;8.674;2022-12-24T08:05:11;93857.00;;;7.50
10598;BMP180;5346;48.766;8.674;2022-12-24T08:07:45;93870.00;;;7.40
10598;BMP180;5346;48.766;8.674;2022-12-24T08:10:13;93872.00;;;7.30
10598;BMP180;5346;48.766;8.674;2022-12-24T08:12:41;93879.00;;;7.40
10598;BMP180;5346;48.766;8.674;2022-12-24T08:15:17;93871.00;;;7.50
10598;BMP180;5346;48.766;8.674;2022-12-24T08:17:45;93879.00;;;7.60
10598;BMP180;5346;48.766;8.674;2022-12-24T08:20:14;93876.00;;;7.40
10598;BMP180;5346;48.766;8.674;2022-12-24T08:22:51;93884.00;;;7.30
10598;BMP180;5346;48.766;8.674;2022-12-24T08:25:19;93889.00;;;7.40
10598;BMP180;5346;48.766;8.674;2022-12-24T08:27:47;93877.00;;;7.50
10598;BMP180;5346;48.766;8.674;2022-12-24T08:30:21;93890.00;;;7.40
10598;BMP180;5346;48.766;8.674;2022-12-24T08:32:56;93895.00;;;7.50
10598;BMP180;5346;48.766;8.674;2022-12-24T08:35:38;93894.00;;;7.50
10598;BMP180;5346;48.766;8.674;2022-12-24T08:38:06;93898.00;;;7.50
10598;BMP180;5346;48.766;8.674;2022-12-24T08:40:33;93904.00;;;7.40
10598;BMP180;5346;48.766;8.674;2022-12-24T08:43:18;93897.00;;;7.30
10598;BMP180;5346;48.766;8.674;2022-12-24T08:45:47;93902.00;;;7.20
10598;BMP180;5346;48.766;8.674;2022-12-24T08:48:24;93919.00;;;7.40
10598;BMP180;5346;48.766;8.674;2022-12-24T08:50:52;93898.00;;;7.30
10598;BMP180;5346;48.766;8.674;2022-12-24T08:53:19;93901.00;;;7.40
10598;BMP180;5346;48.766;8.674;2022-12-24T08:56:04;93903.00;;;7.40
10598;BMP180;5346;48.766;8.674;2022-12-24T08:58:34;93906.00;;;7.40
10598;BMP180;5346;48.766;8.674;2022-12-24T09:01:17;93910.00;;;7.60
10598;BMP180;5346;48.766;8.674;2022-12-24T09:03:45;93914.00;;;7.70
10598;BMP180;5346;48.766;8.674;2022-12-24T09:06:20;93908.00;;;8.00
10598;BMP180;5346;48.766;8.674;2022-12-24T09:08:49;93915.00;;;8.50
10598;BMP180;5346;48.766;8.674;2022-12-24T09:11:18;93919.00;;;8.70
10598;BMP180;5346;48.766;8.674;2022-12-24T09:13:53;93928.00;;;8.60
10598;BMP180;5346;48.766;8.674;2022-12-24T09:16:21;93909.00;;;9.00
10598;BMP180;5346;48.766;8.674;2022-12-24T09:18:52;93925.00;;;10.20
10598;BMP180;5346;48.766;8.674;2022-12-24T09:21:31;93928.00;;;10.40
10598;BMP180;5346;48.766;8.674;2022-12-24T09:23:59;93937.00;;;10.10
10598;BMP180;5346;48.766;8.674;2022-12-24T09:26:34;93957.00;;;9.60
10598;BMP180;5346;48.766;8.674;2022-12-24T09:29:02;93942.00;;;9.30
10598;BMP180;5346;48.766;8.674;2022-12-24T09:31:30;93949.00;;;9.10
10598;BMP180;5346;48.766;8.674;2022-12-24T09:34:06;93951.00;;;9.00
10598;BMP180;5346;48.766;8.674;2022-12-24T09:36:34;93953.00;;;8.80
10598;BMP180;5346;48.766;8.674;2022-12-24T09:39:02;93958.00;;;8.70
10598;BMP180;5346;48.766;8.674;2022-12-24T09:47:36;93937.00;;;9.10
10598;BMP180;5346;48.766;8.674;2022-12-24T09:53:09;93934.00;;;10.80
10598;BMP180;5346;48.766;8.674;2022-12-24T09:55:49;93931.00;;;11.30
10598;BMP180;5346;48.766;8.674;2022-12-24T09:58:38;93948.00;;;11.50
10598;BMP180;5346;48.766;8.674;2022-12-24T10:01:14;93946.00;;;11.50
10598;BMP180;5346;48.766;8.674;2022-12-24T10:03:43;93936.00;;;11.10
10598;BMP180;5346;48.766;8.674;2022-12-24T10:06:18;93935.00;;;10.80
10598;BMP180;5346;48.766;8.674;2022-12-24T10:17:48;93954.00;;;10.10
10598;BMP180;5346;48.766;8.674;2022-12-24T10:23:35;93966.00;;;10.30
10598;BMP180;5346;48.766;8.674;2022-12-24T10:26:25;93963.00;;;10.10
10598;BMP180;5346;48.766;8.674;2022-12-24T10:29:11;93967.00;;;10.00
10598;BMP180;5346;48.766;8.674;2022-12-24T10:32:01;93978.00;;;9.80
10598;BMP180;5346;48.766;8.674;2022-12-24T10:37:36;93964.00;;;9.70
10598;BMP180;5346;48.766;8.674;2022-12-24T10:42:54;93969.00;;;9.50
10598;BMP180;5346;48.766;8.674;2022-12-24T10:45:39;93976.00;;;9.40
10598;BMP180;5346;48.766;8.674;2022-12-24T10:48:13;93979.00;;;9.60
10598;BMP180;5346;48.766;8.674;2022-12-24T10:53:45;93964.00;;;9.90
10598;BMP180;5346;48.766;8.674;2022-12-24T10:56:23;93972.00;;;9.70
10598;BMP180;5346;48.766;8.674;2022-12-24T10:58:54;93971.00;;;9.70
10598;BMP180;5346;48.766;8.674;2022-12-24T11:01:45;93973.00;;;9.80
10598;BMP180;5346;48.766;8.674;2022-12-24T11:04:23;93981.00;;;9.80
10598;BMP180;5346;48.766;8.674;2022-12-24T11:07:03;93985.00;;;9.90
10598;BMP180;5346;48.766;8.674;2022-12-24T11:09:41;93985.00;;;9.60
10598;BMP180;5346;48.766;8.674;2022-12-24T11:12:19;93994.00;;;9.40
10598;BMP180;5346;48.766;8.674;2022-12-24T11:15:17;93999.00;;;9.10
10598;BMP180;5346;48.766;8.674;2022-12-24T11:18:12;93992.00;;;9.10
10598;BMP180;5346;48.766;8.674;2022-12-24T11:20:54;93983.00;;;9.20
10598;BMP180;5346;48.766;8.674;2022-12-24T11:23:27;93981.00;;;9.10
10598;BMP180;5346;48.766;8.674;2022-12-24T11:25:56;93998.00;;;9.20
10598;BMP180;5346;48.766;8.674;2022-12-24T11:28:31;93996.00;;;9.20
10598;BMP180;5346;48.766;8.674;2022-12-24T11:31:20;93994.00;;;9.20
10598;BMP180;5346;48.766;8.674;2022-12-24T11:33:58;93999.00;;;9.00
10598;BMP180;5346;48.766;8.674;2022-12-24T11:36:29;93986.00;;;8.80
10598;BMP180;5346;48.766;8.674;2022-12-24T11:39:03;93991.00;;;8.90
10598;BMP180;5346;48.766;8.674;2022-12-24T11:41:37;94002.00;;;9.00
10598;BMP180;5346;48.766;8.674;2022-12-24T11:44:13;94001.00;;;8.90
10598;BMP180;5346;48.766;8.674;2022-12-24T11:46:42;93991.00;;;8.70
10598;BMP180;5346;48.766;8.674;2022-12-24T11:49:15;93998.00;;;8.80
10598;BMP180;5346;48.766;8.674;2022-12-24T11:55:13;93987.00;;;9.00
10598;BMP180;5346;48.766;8.674;2022-12-24T11:58:16;93983.00;;;9.10
10598;BMP180;5346;48.766;8.674;2022-12-24T12:00:48;93969.00;;;9.60
10598;BMP180;5346;48.766;8.674;2022-12-24T12:03:31;93972.00;;;10.50
10598;BMP180;5346;48.766;8.674;2022-12-24T12:06:05;93964.00;;;10.60
10598;BMP180;5346;48.766;8.674;2022-12-24T12:08:45;93956.00;;;11.20
10598;BMP180;5346;48.766;8.674;2022-12-24T12:11:13;93943.00;;;11.20
10598;BMP180;5346;48.766;8.674;2022-12-24T12:13:45;93939.00;;;12.50
10598;BMP180;5346;48.766;8.674;2022-12-24T12:19:38;93938.00;;;13.10
10598;BMP180;5346;48.766;8.674;2022-12-24T12:22:25;93955.00;;;12.00
10598;BMP180;5346;48.766;8.674;2022-12-24T12:24:58;93958.00;;;12.40
10598;BMP180;5346;48.766;8.674;2022-12-24T12:27:42;93941.00;;;12.40
10598;BMP180;5346;48.766;8.674;2022-12-24T12:30:19;93952.00;;;13.10
10598;BMP180;5346;48.766;8.674;2022-12-24T12:33:03;93959.00;;;13.10
10598;BMP180;5346;48.766;8.674;2022-12-24T12:35:38;93972.00;;;13.60
10598;BMP180;5346;48.766;8.674;2022-12-24T12:38:25;93975.00;;;12.20
10598;BMP180;5346;48.766;8.674;2022-12-24T12:41:17;93981.00;;;12.00
10598;BMP180;5346;48.766;8.674;2022-12-24T12:44:18;93963.00;;;11.40
10598;BMP180;5346;48.766;8.674;2022-12-24T12:50:02;93961.00;;;12.00
10598;BMP180;5346;48.766;8.674;2022-12-24T12:52:57;93952.00;;;12.80
10598;BMP180;5346;48.766;8.674;2022-12-24T12:58:32;93965.00;;;13.30
10598;BMP180;5346;48.766;8.674;2022-12-24T13:12:46;93958.00;;;13.20
10598;BMP180;5346;48.766;8.674;2022-12-24T13:15:41;93962.00;;;12.60
10598;BMP180;5346;48.766;8.674;2022-12-24T13:18:53;93959.00;;;12.50
10598;BMP180;5346;48.766;8.674;2022-12-24T13:21:27;93969.00;;;12.30
10598;BMP180;5346;48.766;8.674;2022-12-24T13:24:06;93970.00;;;11.90
10598;BMP180;5346;48.766;8.674;2022-12-24T13:26:41;93976.00;;;11.50
10598;BMP180;5346;48.766;8.674;2022-12-24T13:37:45;93982.00;;;11.40
10598;BMP180;5346;48.766;8.674;2022-12-24T13:40:26;93988.00;;;11.60
10598;BMP180;5346;48.766;8.674;2022-12-24T13:45:49;93999.00;;;11.80
10598;BMP180;5346;48.766;8.674;2022-12-24T13:48:32;93991.00;;;11.60
10598;BMP180;5346;48.766;8.674;2022-12-24T13:51:25;93984.00;;;10.90
10598;BMP180;5346;48.766;8.674;2022-12-24T13:53:58;93980.00;;;10.90
10598;BMP180;5346;48.766;8.674;2022-12-24T13:56:36;93986.00;;;11.10
10598;BMP180;5346;48.766;8.674;2022-12-24T13:59:26;93983.00;;;10.90
10598;BMP180;5346;48.766;8.674;2022-12-24T14:02:14;93982.00;;;10.60
10598;BMP180;5346;48.766;8.674;2022-12-24T14:04:43;93978.00;;;10.50
10598;BMP180;5346;48.766;8.674;2022-12-24T14:07:22;93965.00;;;10.60
10598;BMP180;5346;48.766;8.674;2022-12-24T14:09:50;93968.00;;;10.60
10598;BMP180;5346;48.766;8.674;2022-12-24T14:12:46;93967.00;;;10.80
10598;BMP180;5346;48.766;8.674;2022-12-24T14:18:23;93971.00;;;11.30
10598;BMP180;5346;48.766;8.674;2022-12-24T14:21:24;93981.00;;;11.00
10598;BMP180;5346;48.766;8.674;2022-12-24T14:24:05;93984.00;;;10.30
10598;BMP180;5346;48.766;8.674;2022-12-24T14:26:57;93982.00;;;10.30
10598;BMP180;5346;48.766;8.674;2022-12-24T14:29:37;93985.00;;;9.90
10598;BMP180;5346;48.766;8.674;2022-12-24T14:32:15;93981.00;;;9.90
10598;BMP180;5346;48.766;8.674;2022-12-24T14:34:43;93982.00;;;9.60
10598;BMP180;5346;48.766;8.674;2022-12-24T14:37:12;93971.00;;;9.50
10598;BMP180;5346;48.766;8.674;2022-12-24T14:39:48;93974.00;;;9.50
10598;BMP180;5346;48.766;8.674;2022-12-24T14:45:26;93999.00;;;9.20
10598;BMP180;5346;48.766;8.674;2022-12-24T14:51:21;93993.00;;;9.00
10598;BMP180;5346;48.766;8.674;2022-12-24T14:56:38;94006.00;;;8.70
10598;BMP180;5346;48.766;8.674;2022-12-24T14:59:19;94000.00;;;8.60
10598;BMP180;5346;48.766;8.674;2022-12-24T15:01:54;93999.00;;;8.50
10598;BMP180;5346;48.766;8.674;2022-12-24T15:04:21;94000.00;;;8.30
10598;BMP180;5346;48.766;8.674;2022-12-24T15:06:52;94007.00;;;8.20
10598;BMP180;5346;48.766;8.674;2022-12-24T15:09:29;94003.00;;;8.00
10598;BMP180;5346;48.766;8.674;2022-12-24T15:11:59;94002.00;;;8.10
10598;BMP180;5346;48.766;8.674;2022-12-24T15:14:41;94004.00;;;8.00
10598;BMP180;5346;48.766;8.674;2022-12-24T15:17:16;94004.00;;;8.00
10598;BMP180;5346;48.766;8.674;2022-12-24T15:19:51;94007.00;;;8.00
10598;BMP180;5346;48.766;8.674;2022-12-24T15:22:30;94011.00;;;7.90
10598;BMP180;5346;48.766;8.674;2022-12-24T15:25:27;94019.00;;;7.80
10598;BMP180;5346;48.766;8.674;2022-12-24T15:27:57;94018.00;;;7.90
10598;BMP180;5346;48.766;8.674;2022-12-24T15:30:31;94022.00;;;7.90
10598;BMP180;5346;48.766;8.674;2022-12-24T15:33:03;94030.00;;;7.80
10598;BMP180;5346;48.766;8.674;2022-12-24T15:35:55;94026.00;;;7.70
10598;BMP180;5346;48.766;8.674;2022-12-24T15:41:59;94040.00;;;7.40
10598;BMP180;5346;48.766;8.674;2022-12-24T15:45:05;94035.00;;;7.30
10598;BMP180;5346;48.766;8.674;2022-12-24T15:48:22;94026.00;;;7.20
10598;BMP180;5346;48.766;8.674;2022-12-24T15:50:35;94033.00;;;7.10
10598;BMP180;5346;48.766;8.674;2022-12-24T15:53:07;94036.00;;;7.00
10598;BMP180;5346;48.766;8.674;2022-12-24T15:56:41;94041.00;;;6.90
10598;BMP180;5346;48.766;8.674;2022-12-24T16:01:53;94025.00;;;6.90
10598;BMP180;5346;48.766;8.674;2022-12-24T16:04:27;94015.00;;;6.90
10598;BMP180;5346;48.766;8.674;2022-12-24T16:07:02;94025.00;;;7.00
10598;BMP180;5346;48.766;8.674;2022-12-24T16:11:58;94035.00;;;7.00
10598;BMP180;5346;48.766;8.674;2022-12-24T16:14:35;94034.00;;;7.00
10598;BMP180;5346;48.766;8.674;2022-12-24T16:17:31;94040.00;;;7.20
10598;BMP180;5346;48.766;8.674;2022-12-24T16:20:20;94038.00;;;7.30
10598;BMP180;5346;48.766;8.674;2022-12-24T16:22:49;94035.00;;;7.40
10598;BMP180;5346;48.766;8.674;2022-12-24T16:25:27;94030.00;;;7.40
10598;BMP180;5346;48.766;8.674;2022-12-24T16:27:55;94036.00;;;7.50
10598;BMP180;5346;48.766;8.674;2022-12-24T16:30:26;94042.00;;;7.30
10598;BMP180;5346;48.766;8.674;2022-12-24T16:33:00;94047.00;;;7.20
10598;BMP180;5346;48.766;8.674;2022-12-24T16:35:30;94053.00;;;7.20
10598;BMP180;5346;48.766;8.674;2022-12-24T16:38:09;94059.00;;;7.10
10598;BMP180;5346;48.766;8.674;2022-12-24T16:40:36;94055.00;;;7.00
10598;BMP180;5346;48.766;8.674;2022-12-24T16:43:07;94050.00;;;7.00
10598;BMP180;5346;48.766;8.674;2022-12-24T16:46:05;94053.00;;;7.00
10598;BMP180;5346;48.766;8.674;2022-12-24T16:48:35;94068.00;;;7.00
10598;BMP180;5346;48.766;8.674;2022-12-24T16:51:10;94066.00;;;6.90
10598;BMP180;5346;48.766;8.674;2022-12-24T16:53:37;94071.00;;;6.90
10598;BMP180;5346;48.766;8.674;2022-12-24T16:56:05;94067.00;;;6.90
10598;BMP180;5346;48.766;8.674;2022-12-24T16:58:39;94063.00;;;7.00
10598;BMP180;5346;48.766;8.674;2022-12-24T17:01:07;94053.00;;;6.90
10598;BMP180;5346;48.766;8.674;2022-12-24T17:03:36;94073.00;;;6.90